Cruise inventory

Prince Madog ISIS8

Cruise plan

Cruise Info. 
Ship name (ship code)Prince Madog (74PD)
Cruise identifierISIS8
Cruise period1979-08-28 — 1979-08-30
StatusCompleted
ObjectivesSurvey cruise contributing to research directed toward an understanding of how the physics of the Irish Sea and surrounding regions (Celtic Sea, St, George's Channel, North Channel and Clyde Sea) determined biogeochemical processes and sediment transport.
ProjectInterdisciplinary Study of the Irish Sea
Data held at BODC 
Series/Profiles 
39  CTD/STD cast
Vertical spatial coordinates
Salinity of the water column
Temperature of the water column
Vertical spatial coordinates
Salinity of the water column
Temperature of the water column

BODC idDate/TimeLocationDoc.
691371979-08-28 16:11 53° 37' 4" N  5° 8' 45" W  View metadata report for BODC series reference number 69137
691491979-08-28 18:44 53° 41' 13" N  5° 13' 4" W  View metadata report for BODC series reference number 69149
691501979-08-28 20:06 53° 40' 58" N  5° 20' 59" W  View metadata report for BODC series reference number 69150
691621979-08-28 21:32 53° 40' 47" N  5° 27' 57" W  View metadata report for BODC series reference number 69162
691741979-08-28 22:36 53° 41' 16" N  5° 34' 19" W  View metadata report for BODC series reference number 69174
691861979-08-28 23:35 53° 41' 16" N  5° 40' 47" W  View metadata report for BODC series reference number 69186
691981979-08-29 00:34 53° 41' 9" N  5° 47' 38" W  View metadata report for BODC series reference number 69198
692051979-08-29 01:44 53° 49' 15" N  5° 43' 19" W  View metadata report for BODC series reference number 69205
692171979-08-29 02:58 53° 56' 27" N  5° 41' 13" W  View metadata report for BODC series reference number 69217
692291979-08-29 04:06 53° 53' 31" N  5° 37' 4" W  View metadata report for BODC series reference number 69229
692301979-08-29 05:14 53° 51' 35" N  5° 32' 56" W  View metadata report for BODC series reference number 69230
692421979-08-29 06:06 53° 48' 39" N  5° 27' 28" W  View metadata report for BODC series reference number 69242
692541979-08-29 06:57 53° 45' 32" N  5° 21' 32" W  View metadata report for BODC series reference number 69254
692661979-08-29 11:33 53° 51' 28" N  5° 33' 14" W  View metadata report for BODC series reference number 69266
692781979-08-29 17:20 53° 41' 23" N  5° 14' 2" W  View metadata report for BODC series reference number 69278
692911979-08-29 18:10 53° 40' 44" N  5° 7' 55" W  View metadata report for BODC series reference number 69291
693091979-08-29 20:15 53° 40' 44" N  4° 53' 45" W  View metadata report for BODC series reference number 69309
693101979-08-29 21:32 53° 40' 55" N  4° 40' 44" W  View metadata report for BODC series reference number 69310
693221979-08-29 22:46 53° 40' 51" N  4° 26' 42" W  View metadata report for BODC series reference number 69322
693341979-08-29 23:50 53° 40' 22" N  4° 13' 33" W  View metadata report for BODC series reference number 69334
693461979-08-30 01:18 53° 40' 26" N  4° 0' 21" W  View metadata report for BODC series reference number 69346
693581979-08-30 02:24 53° 40' 29" N  3° 46' 48" W  View metadata report for BODC series reference number 69358
693711979-08-30 03:32 53° 40' 58" N  3° 40' 48" W  View metadata report for BODC series reference number 69371
693831979-08-30 04:23 53° 40' 44" N  3° 33' 14" W  View metadata report for BODC series reference number 69383
693951979-08-30 05:14 53° 40' 47" N  3° 26' 16" W  View metadata report for BODC series reference number 69395
694021979-08-30 07:08 53° 45' 0" N  3° 19' 55" W  View metadata report for BODC series reference number 69402
694141979-08-30 08:31 53° 49' 4" N  3° 18' 46" W  View metadata report for BODC series reference number 69414
694261979-08-30 09:44 53° 48' 57" N  3° 27' 10" W  View metadata report for BODC series reference number 69426
694381979-08-30 10:42 53° 48' 57" N  3° 33' 28" W  View metadata report for BODC series reference number 69438
694511979-08-30 12:19 53° 48' 53" N  3° 39' 18" W  View metadata report for BODC series reference number 69451
694631979-08-30 13:13 53° 48' 43" N  3° 46' 33" W  View metadata report for BODC series reference number 69463
694751979-08-30 14:31 53° 48' 43" N  3° 53' 27" W  View metadata report for BODC series reference number 69475
694871979-08-30 15:29 53° 48' 43" N  3° 59' 38" W  View metadata report for BODC series reference number 69487
694991979-08-30 16:41 53° 48' 50" N  4° 6' 32" W  View metadata report for BODC series reference number 69499
695061979-08-30 17:30 53° 48' 21" N  4° 13' 48" W  View metadata report for BODC series reference number 69506
695181979-08-30 18:52 53° 48' 57" N  4° 27' 18" W  View metadata report for BODC series reference number 69518
695311979-08-30 19:56 53° 48' 57" N  4° 41' 6" W  View metadata report for BODC series reference number 69531
695431979-08-30 21:03 53° 48' 43" N  4° 54' 54" W  View metadata report for BODC series reference number 69543
695551979-08-30 22:11 53° 48' 43" N  5° 8' 34" W  View metadata report for BODC series reference number 69555